Time;durP1;ratioP1;P1;durP2;ratioP2;P2;SDS_P1;SDS_P2;PMS_P1;PMS_P2;Temp;Humidity;BMP_temperature;BMP_pressure;BME280_temperature;BME280_humidity;BME280_pressure;Samples;Min_cycle;Max_cycle;Signal;HPM_P1;HPM_P2
2021/04/14 00:00:36;;;;;;;1.20;1.00;;;1.30;98.00;;;;;;5048677;28;20468;-75
2021/04/14 00:03:09;;;;;;;1.60;1.57;;;1.30;98.00;;;;;;5049999;28;20514;-76
2021/04/14 00:05:38;;;;;;;2.70;2.20;;;1.40;98.00;;;;;;5048674;28;20486;-75
2021/04/14 00:08:05;;;;;;;1.20;1.10;;;1.30;98.00;;;;;;5050978;28;21061;-75
2021/04/14 00:10:34;;;;;;;1.20;1.20;;;1.20;98.00;;;;;;5048437;28;20824;-75
2021/04/14 00:13:03;;;;;;;1.20;1.00;;;1.00;98.00;;;;;;5051052;28;20458;-75
2021/04/14 00:15:33;;;;;;;1.93;1.20;;;0.90;98.00;;;;;;5048594;28;20449;-75
2021/04/14 00:17:59;;;;;;;1.20;1.10;;;0.80;98.00;;;;;;5051043;28;20959;-76
2021/04/14 00:20:26;;;;;;;1.20;1.00;;;0.80;98.00;;;;;;5048488;28;20453;-75
2021/04/14 00:22:53;;;;;;;1.20;1.00;;;0.70;98.00;;;;;;5050809;28;20457;-75
2021/04/14 00:25:23;;;;;;;1.70;1.60;;;0.60;98.00;;;;;;5048339;28;20460;-75
2021/04/14 00:27:50;;;;;;;1.43;1.40;;;0.50;98.00;;;;;;5050670;28;20493;-75
2021/04/14 00:30:17;;;;;;;1.33;1.30;;;0.60;98.00;;;;;;5048197;28;20453;-75
2021/04/14 00:32:44;;;;;;;2.13;1.23;;;0.60;98.00;;;;;;5050762;28;20460;-75
2021/04/14 00:35:11;;;;;;;1.53;1.33;;;0.80;98.00;;;;;;5048132;28;20461;-76
2021/04/14 00:37:39;;;;;;;1.20;1.10;;;0.90;98.00;;;;;;5053760;28;20963;-75
2021/04/14 00:40:07;;;;;;;1.20;1.00;;;0.80;98.00;;;;;;5053038;28;20525;-75
2021/04/14 00:42:34;;;;;;;2.70;1.30;;;0.90;98.00;;;;;;5036331;28;20492;-75
2021/04/14 00:45:00;;;;;;;1.20;1.10;;;0.80;98.00;;;;;;5054561;28;20461;-75
2021/04/14 00:47:27;;;;;;;2.00;1.60;;;0.80;98.00;;;;;;5051916;28;20554;-75
2021/04/14 00:49:53;;;;;;;1.20;1.10;;;0.70;98.00;;;;;;5054350;28;20453;-74
2021/04/14 00:52:20;;;;;;;1.63;1.53;;;0.80;98.00;;;;;;5050458;28;20469;-75
2021/04/14 00:54:48;;;;;;;1.20;1.00;;;0.80;98.00;;;;;;5054107;28;20449;-75
2021/04/14 00:57:14;;;;;;;1.20;1.00;;;0.90;98.00;;;;;;5051558;28;20472;-74
2021/04/14 00:59:41;;;;;;;1.20;1.00;;;0.90;98.00;;;;;;5054222;28;20464;-75
2021/04/14 01:02:08;;;;;;;1.20;1.03;;;1.00;98.00;;;;;;5051851;28;20456;-74
2021/04/14 01:04:35;;;;;;;1.20;1.00;;;1.00;98.00;;;;;;5054122;28;20548;-74
2021/04/14 01:07:02;;;;;;;1.87;1.63;;;0.80;98.00;;;;;;5051565;28;20986;-75
2021/04/14 01:09:29;;;;;;;1.20;1.00;;;0.80;98.00;;;;;;5054269;28;20497;-74
2021/04/14 01:11:57;;;;;;;1.20;1.07;;;0.70;98.00;;;;;;5051583;28;20463;-75
2021/04/14 01:14:24;;;;;;;1.20;1.10;;;0.70;98.00;;;;;;5053900;28;20464;-75
2021/04/14 01:16:51;;;;;;;1.67;1.50;;;0.80;98.00;;;;;;5050136;28;20457;-75
2021/04/14 01:19:17;;;;;;;1.20;1.00;;;0.90;98.00;;;;;;5053886;28;20460;-76
2021/04/14 01:21:45;;;;;;;1.20;1.00;;;0.60;98.00;;;;;;5051273;28;20960;-75
2021/04/14 01:24:14;;;;;;;1.20;0.90;;;0.40;98.00;;;;;;5053749;28;20481;-76
2021/04/14 01:26:41;;;;;;;1.20;1.00;;;0.20;98.00;;;;;;5050899;28;20495;-75
2021/04/14 01:29:08;;;;;;;1.20;1.10;;;0.10;98.00;;;;;;5053600;28;20963;-76
2021/04/14 01:31:35;;;;;;;1.40;1.27;;;0.00;98.00;;;;;;5049222;28;20933;-75
2021/04/14 01:34:03;;;;;;;1.20;1.00;;;-0.10;98.00;;;;;;5053376;28;20947;-75
2021/04/14 01:36:29;;;;;;;1.20;1.00;;;-0.10;98.00;;;;;;5050988;28;20927;-75
2021/04/14 01:38:57;;;;;;;1.20;1.00;;;0.10;98.00;;;;;;5052212;28;20518;-76
2021/04/14 01:41:24;;;;;;;1.20;1.00;;;0.20;98.00;;;;;;5050748;28;20548;-75
2021/04/14 01:43:51;;;;;;;1.20;1.00;;;0.30;98.00;;;;;;5053330;28;20510;-75
2021/04/14 01:46:18;;;;;;;1.20;1.00;;;0.40;98.00;;;;;;5050337;28;20463;-75
2021/04/14 01:48:44;;;;;;;1.20;1.00;;;0.50;98.00;;;;;;5052101;28;20556;-75
2021/04/14 01:51:14;;;;;;;1.20;1.00;;;0.40;98.00;;;;;;5050426;28;20874;-75
2021/04/14 01:53:42;;;;;;;3.53;2.33;;;0.50;98.00;;;;;;5053052;28;20460;-76
2021/04/14 01:56:10;;;;;;;1.20;1.00;;;0.60;98.00;;;;;;5050324;28;20484;-76
2021/04/14 01:58:37;;;;;;;1.20;1.00;;;0.60;98.00;;;;;;5052861;28;20978;-75
2021/04/14 02:01:06;;;;;;;1.80;1.57;;;0.50;98.00;;;;;;5050217;28;20484;-75
2021/04/14 02:03:36;;;;;;;3.30;2.20;;;0.20;98.00;;;;;;5053192;28;20513;-75
2021/04/14 02:06:02;;;;;;;4.07;1.83;;;0.00;98.00;;;;;;5050427;28;20467;-74
2021/04/14 02:08:29;;;;;;;1.30;1.10;;;0.00;98.00;;;;;;5052935;28;20494;-75
2021/04/14 02:10:58;;;;;;;1.20;1.00;;;-0.10;98.00;;;;;;5050083;28;20455;-75
2021/04/14 02:13:27;;;;;;;1.20;1.00;;;0.00;98.00;;;;;;5051674;28;20464;-76
2021/04/14 02:15:54;;;;;;;1.20;1.00;;;-0.20;98.00;;;;;;5050513;28;20942;-75
2021/04/14 02:18:21;;;;;;;1.63;1.27;;;-0.20;98.00;;;;;;5052621;28;20851;-74
2021/04/14 02:20:50;;;;;;;1.20;1.00;;;-0.10;98.00;;;;;;5049806;28;20451;-75
2021/04/14 02:23:19;;;;;;;1.20;1.00;;;0.00;98.00;;;;;;5052368;28;20514;-75
2021/04/14 02:25:48;;;;;;;1.20;1.00;;;0.20;98.00;;;;;;5050304;28;20804;-75
2021/04/14 02:28:15;;;;;;;1.20;1.00;;;0.20;98.00;;;;;;5052318;28;20507;-75
2021/04/14 02:30:43;;;;;;;1.90;1.20;;;0.10;98.00;;;;;;5049637;28;20947;-74
2021/04/14 02:33:10;;;;;;;1.20;1.00;;;0.10;98.00;;;;;;5051219;28;20456;-75
2021/04/14 02:35:38;;;;;;;1.63;1.30;;;0.00;98.00;;;;;;5049457;28;20462;-75
2021/04/14 02:38:06;;;;;;;1.20;1.00;;;0.00;98.00;;;;;;5052028;28;20463;-75
2021/04/14 02:40:33;;;;;;;1.20;1.07;;;0.00;98.00;;;;;;5048752;28;20475;-75
2021/04/14 02:43:00;;;;;;;3.93;2.43;;;-0.20;98.00;;;;;;5051723;28;20829;-74
2021/04/14 02:45:31;;;;;;;1.30;1.23;;;-0.20;98.00;;;;;;5048981;28;20470;-74
2021/04/14 02:47:59;;;;;;;1.20;1.10;;;-0.20;98.00;;;;;;5052308;28;21034;-74
2021/04/14 02:50:26;;;;;;;1.30;1.23;;;-0.30;98.00;;;;;;5049777;28;20459;-75
2021/04/14 02:52:53;;;;;;;1.20;1.00;;;-0.20;98.00;;;;;;5052206;28;20458;-76
2021/04/14 02:55:33;;;;;;;1.20;1.00;;;-0.10;98.00;;;;;;5050634;28;20463;-75
2021/04/14 02:58:00;;;;;;;1.30;1.23;;;-0.20;98.00;;;;;;5051941;28;20470;-74
2021/04/14 03:00:29;;;;;;;1.80;1.23;;;-0.10;98.00;;;;;;5048789;28;20492;-75
2021/04/14 03:02:55;;;;;;;1.20;1.00;;;-0.10;98.00;;;;;;5051966;28;20514;-75
2021/04/14 03:05:45;;;;;;;1.30;1.20;;;0.10;98.00;;;;;;5049188;28;20459;-75
2021/04/14 03:08:12;;;;;;;2.90;1.57;;;-0.10;98.00;;;;;;5050313;28;21033;-74
2021/04/14 03:10:38;;;;;;;1.20;1.00;;;-0.20;98.00;;;;;;5049105;28;20468;-75
2021/04/14 03:13:07;;;;;;;1.20;1.00;;;-0.30;98.00;;;;;;5050352;28;20452;-75
2021/04/14 03:15:43;;;;;;;1.20;1.00;;;-0.50;98.00;;;;;;5049010;28;20459;-74
2021/04/14 03:18:12;;;;;;;1.20;1.00;;;-0.70;98.00;;;;;;5051609;28;20455;-75
2021/04/14 03:20:53;;;;;;;1.20;1.00;;;-0.80;98.00;;;;;;5048583;28;20469;-75
2021/04/14 03:23:20;;;;;;;1.30;1.10;;;-0.70;98.00;;;;;;5051267;28;20459;-75
2021/04/14 03:25:46;;;;;;;1.20;1.00;;;-0.70;98.00;;;;;;5048643;28;20524;-75
2021/04/14 03:28:13;;;;;;;1.20;1.00;;;-0.70;98.00;;;;;;5051029;28;20483;-74
2021/04/14 03:30:40;;;;;;;1.20;1.10;;;-0.70;98.00;;;;;;5048417;28;21120;-76
2021/04/14 03:33:07;;;;;;;1.20;1.20;;;-0.60;98.00;;;;;;5051458;28;20459;-75
2021/04/14 03:35:33;;;;;;;1.30;1.20;;;-0.70;98.00;;;;;;5048853;28;20457;-75
2021/04/14 03:38:03;;;;;;;1.40;1.23;;;-0.80;98.00;;;;;;5051510;28;20467;-76
2021/04/14 03:40:30;;;;;;;1.20;1.10;;;-0.90;98.00;;;;;;5048595;28;20845;-74
2021/04/14 03:42:57;;;;;;;1.20;1.00;;;-1.00;98.00;;;;;;5051482;28;20463;-74
2021/04/14 03:45:29;;;;;;;1.20;1.00;;;-1.00;98.00;;;;;;5049843;28;20454;-75
2021/04/14 03:47:56;;;;;;;1.20;1.00;;;-1.10;98.00;;;;;;5051104;28;20257;-74
2021/04/14 03:50:24;;;;;;;2.83;1.70;;;-1.00;98.00;;;;;;5050633;28;20459;-75
2021/04/14 03:52:50;;;;;;;1.20;1.00;;;-0.90;98.00;;;;;;5050589;28;20475;-74
2021/04/14 03:55:21;;;;;;;1.20;1.00;;;-0.80;98.00;;;;;;5050018;28;20455;-75
2021/04/14 03:57:47;;;;;;;1.20;1.03;;;-0.60;98.00;;;;;;5048768;28;20470;-74
2021/04/14 04:00:16;;;;;;;1.20;1.10;;;-0.60;98.00;;;;;;5050994;28;21024;-74
2021/04/14 04:02:46;;;;;;;1.40;1.23;;;-0.50;98.00;;;;;;5048203;28;20882;-75
2021/04/14 04:05:13;;;;;;;1.20;1.00;;;-0.40;98.00;;;;;;5050867;28;20459;-74
2021/04/14 04:07:40;;;;;;;1.30;1.10;;;-0.40;98.00;;;;;;5048088;28;20958;-74
2021/04/14 04:10:09;;;;;;;1.73;1.50;;;-0.70;98.00;;;;;;5050545;28;20206;-74
2021/04/14 04:12:38;;;;;;;1.20;1.00;;;-0.70;98.00;;;;;;5050035;28;20459;-74
2021/04/14 04:15:11;;;;;;;1.63;1.13;;;-0.90;98.00;;;;;;5053576;28;20447;-74
2021/04/14 04:17:41;;;;;;;1.20;1.00;;;-1.10;98.00;;;;;;5052006;28;20561;-74
2021/04/14 04:20:10;;;;;;;1.20;1.00;;;-1.20;98.00;;;;;;5053639;28;20454;-74
2021/04/14 04:22:39;;;;;;;1.45;1.27;;;-1.20;98.00;;;;;;5052065;28;20944;-75
2021/04/14 04:25:07;;;;;;;1.20;1.03;;;-1.30;98.00;;;;;;5054704;28;20201;-74
2021/04/14 04:27:34;;;;;;;1.43;1.17;;;-1.20;98.00;;;;;;5051993;28;20493;-74
2021/04/14 04:30:02;;;;;;;1.30;1.27;;;-1.10;98.00;;;;;;5054581;28;20451;-74
2021/04/14 04:32:32;;;;;;;1.20;1.17;;;-1.00;98.00;;;;;;5052158;28;20323;-74
2021/04/14 04:34:58;;;;;;;1.20;1.00;;;-1.10;98.00;;;;;;5054872;28;20457;-75
2021/04/14 04:37:25;;;;;;;1.57;1.10;;;-1.20;98.00;;;;;;5051997;28;20203;-74
2021/04/14 04:39:51;;;;;;;2.67;1.75;;;-1.30;98.00;;;;;;5053548;28;20465;-75
2021/04/14 04:42:19;;;;;;;1.20;1.00;;;-1.10;98.00;;;;;;5052053;28;20199;-75
2021/04/14 04:44:46;;;;;;;1.30;1.10;;;-1.00;98.00;;;;;;5052934;28;20230;-74
2021/04/14 04:47:14;;;;;;;1.20;1.00;;;-0.90;98.00;;;;;;5051539;28;20485;-74
2021/04/14 04:49:41;;;;;;;1.67;1.20;;;-0.80;98.00;;;;;;5054407;28;20463;-74
2021/04/14 04:52:08;;;;;;;1.20;1.00;;;-0.70;98.00;;;;;;5050296;28;20462;-74
2021/04/14 04:54:35;;;;;;;1.20;0.90;;;-0.70;98.00;;;;;;5054312;28;20204;-74
2021/04/14 04:57:03;;;;;;;1.50;1.33;;;-0.60;98.00;;;;;;5051225;28;20207;-74
2021/04/14 04:59:29;;;;;;;1.30;1.00;;;-0.80;98.00;;;;;;5054032;28;20447;-74
2021/04/14 05:02:00;;;;;;;1.20;1.10;;;-0.90;98.00;;;;;;5051281;28;20500;-73
2021/04/14 05:04:28;;;;;;;1.30;1.00;;;-0.90;98.00;;;;;;5052689;28;20454;-74
2021/04/14 05:06:55;;;;;;;1.20;1.00;;;-0.70;98.00;;;;;;5051153;28;20486;-74
2021/04/14 05:09:22;;;;;;;1.20;1.00;;;-0.60;98.00;;;;;;5053561;28;20454;-74
2021/04/14 05:11:48;;;;;;;1.20;1.10;;;-0.80;98.00;;;;;;5051178;28;20467;-74
2021/04/14 05:14:15;;;;;;;1.20;1.10;;;-1.00;98.00;;;;;;5053669;28;20547;-75
2021/04/14 05:16:42;;;;;;;1.63;1.30;;;-1.00;98.00;;;;;;5051127;28;20458;-73
2021/04/14 05:19:08;;;;;;;1.20;1.00;;;-0.90;98.00;;;;;;5053816;28;20466;-75
2021/04/14 05:21:39;;;;;;;6.17;3.00;;;-1.00;98.00;;;;;;5050729;28;20208;-74
2021/04/14 05:24:06;;;;;;;1.20;1.00;;;-1.10;98.00;;;;;;5053747;28;20954;-75
2021/04/14 05:26:33;;;;;;;1.30;1.10;;;-1.00;98.00;;;;;;5050977;28;21035;-75
2021/04/14 05:29:02;;;;;;;1.20;1.00;;;-0.80;98.00;;;;;;5053829;28;20462;-74
2021/04/14 05:31:30;;;;;;;2.90;1.87;;;-0.70;98.00;;;;;;5051112;28;20975;-74
2021/04/14 05:33:57;;;;;;;1.58;1.08;;;-0.60;98.00;;;;;;5053833;28;20936;-75
2021/04/14 05:36:24;;;;;;;1.20;1.00;;;-0.40;98.00;;;;;;5050951;28;20195;-75
2021/04/14 05:38:52;;;;;;;1.20;1.00;;;-0.60;98.00;;;;;;5053645;28;20516;-74
2021/04/14 05:41:20;;;;;;;1.20;1.00;;;-0.50;98.00;;;;;;5050976;28;20461;-73
2021/04/14 05:43:47;;;;;;;2.93;1.50;;;-0.50;98.00;;;;;;5053236;28;20493;-74
2021/04/14 05:46:16;;;;;;;1.20;1.10;;;-0.70;98.00;;;;;;5049628;28;20482;-74
2021/04/14 05:48:44;;;;;;;2.13;1.50;;;-0.90;98.00;;;;;;5052113;28;20489;-74
2021/04/14 05:51:13;;;;;;;1.20;1.00;;;-1.00;98.00;;;;;;5050759;28;20557;-74
2021/04/14 05:53:41;;;;;;;1.43;1.40;;;-1.10;98.00;;;;;;5053203;28;20480;-74
2021/04/14 05:56:10;;;;;;;1.93;1.63;;;-0.80;98.00;;;;;;5050513;28;20534;-73
2021/04/14 05:58:37;;;;;;;1.60;1.30;;;-0.60;98.00;;;;;;5053052;28;21030;-75
2021/04/14 06:01:04;;;;;;;3.60;2.90;;;-0.50;98.00;;;;;;5050361;28;20449;-71
2021/04/14 06:03:30;;;;;;;1.20;1.00;;;-0.50;98.00;;;;;;5053037;28;20459;-73
2021/04/14 06:05:59;;;;;;;1.20;1.00;;;-0.30;98.00;;;;;;5050461;28;21032;-73
2021/04/14 06:08:27;;;;;;;1.83;1.30;;;-0.20;98.00;;;;;;5052810;28;20494;-73
2021/04/14 06:10:53;;;;;;;1.40;1.17;;;-0.10;98.00;;;;;;5050169;28;20904;-74
2021/04/14 06:13:21;;;;;;;1.30;1.20;;;0.00;98.00;;;;;;5052719;28;20891;-73
2021/04/14 06:15:47;;;;;;;2.27;1.73;;;0.20;98.00;;;;;;5050363;28;20535;-74
2021/04/14 06:18:14;;;;;;;1.47;1.30;;;0.40;98.00;;;;;;5052718;28;20456;-73
2021/04/14 06:20:41;;;;;;;1.93;1.50;;;0.50;98.00;;;;;;5050912;28;20881;-74
2021/04/14 06:23:10;;;;;;;2.37;1.73;;;0.70;98.00;;;;;;5052628;28;20456;-72
2021/04/14 06:25:40;;;;;;;1.20;0.90;;;0.80;98.00;;;;;;5052391;28;20454;-72
2021/04/14 06:28:07;;;;;;;3.77;1.40;;;0.90;98.00;;;;;;5052355;28;20486;-72
2021/04/14 06:30:36;;;;;;;2.13;1.47;;;1.00;98.00;;;;;;5052640;28;20480;-72
2021/04/14 06:33:05;;;;;;;1.30;1.20;;;1.00;98.00;;;;;;5049962;28;20465;-73
2021/04/14 06:35:32;;;;;;;1.40;1.33;;;1.00;98.00;;;;;;5051753;28;20463;-73
2021/04/14 06:38:00;;;;;;;1.20;1.10;;;1.00;98.00;;;;;;5049867;28;20463;-74
2021/04/14 06:43:25;;;;;;;1.60;1.33;;;1.30;98.00;;;;;;5052071;28;20460;-73
2021/04/14 06:45:56;;;;;;;2.07;1.93;;;1.50;98.00;;;;;;5049778;28;20463;-73
2021/04/14 06:48:30;;;;;;;1.43;1.37;;;1.60;98.00;;;;;;5051981;28;20481;-73
2021/04/14 06:51:01;;;;;;;1.93;1.83;;;1.70;98.00;;;;;;5049322;28;20463;-71
2021/04/14 06:53:54;;;;;;;1.60;1.50;;;1.90;98.00;;;;;;5052027;28;20507;-72
2021/04/14 06:56:22;;;;;;;2.03;1.57;;;1.90;98.00;;;;;;5049066;28;20465;-72
2021/04/14 06:58:53;;;;;;;1.87;1.60;;;2.10;98.00;;;;;;5051736;28;20804;-73
2021/04/14 07:01:27;;;;;;;1.20;1.10;;;2.10;98.00;;;;;;5048981;28;20511;-73
2021/04/14 07:04:01;;;;;;;1.20;1.10;;;2.20;98.00;;;;;;5051593;28;20468;-74
2021/04/14 07:06:30;;;;;;;2.27;1.60;;;2.30;98.00;;;;;;5049047;28;20788;-73
2021/04/14 07:09:11;;;;;;;1.57;1.30;;;2.40;98.00;;;;;;5051611;28;21182;-73
2021/04/14 07:11:38;;;;;;;1.83;1.30;;;2.60;98.00;;;;;;5047454;28;20514;-74
2021/04/14 07:14:06;;;;;;;1.20;1.10;;;2.80;98.00;;;;;;5051427;28;20464;-74
2021/04/14 07:16:59;;;;;;;1.20;1.00;;;2.80;98.00;;;;;;5048757;28;20461;-75
2021/04/14 07:19:42;;;;;;;1.70;1.40;;;3.10;98.00;;;;;;5049900;28;20457;-73
2021/04/14 07:22:19;;;;;;;1.20;1.00;;;3.30;98.00;;;;;;5048986;28;20457;-76
2021/04/14 07:24:51;;;;;;;1.70;1.60;;;3.50;98.00;;;;;;5049781;28;20461;-72
2021/04/14 07:27:24;;;;;;;1.20;1.00;;;3.70;98.00;;;;;;5048510;28;20486;-72
2021/04/14 07:29:56;;;;;;;1.50;1.30;;;3.90;98.00;;;;;;5049498;28;20485;-73
2021/04/14 07:32:30;;;;;;;1.20;1.07;;;4.00;97.00;;;;;;5046985;28;20515;-72
2021/04/14 07:35:14;;;;;;;1.30;1.10;;;4.00;96.60;;;;;;5050764;28;20465;-74
2021/04/14 07:37:55;;;;;;;1.20;1.00;;;4.10;97.10;;;;;;5048086;28;20804;-72
2021/04/14 07:40:27;;;;;;;1.50;1.47;;;4.20;96.50;;;;;;5051057;28;20458;-73
2021/04/14 07:43:04;;;;;;;1.40;1.20;;;4.20;95.70;;;;;;5047987;28;20511;-73
2021/04/14 07:45:33;;;;;;;1.20;0.90;;;4.40;95.90;;;;;;5050502;28;20458;-73
2021/04/14 07:48:06;;;;;;;1.30;1.10;;;4.60;95.40;;;;;;5048148;28;20620;-74
2021/04/14 07:50:38;;;;;;;1.27;1.10;;;4.80;94.20;;;;;;5050648;28;20462;-73
2021/04/14 07:53:16;;;;;;;1.20;0.90;;;4.90;94.00;;;;;;5047877;28;20467;-73
2021/04/14 07:55:43;;;;;;;1.80;1.27;;;5.00;94.10;;;;;;5050175;28;20462;-74
2021/04/14 07:58:14;;;;;;;1.30;1.20;;;5.10;95.40;;;;;;5046944;28;20523;-73
2021/04/14 08:00:43;;;;;;;1.20;1.00;;;5.20;93.20;;;;;;5050610;28;20507;-72
2021/04/14 08:03:17;;;;;;;1.50;1.30;;;5.20;93.40;;;;;;5046731;28;20831;-72
2021/04/14 08:05:44;;;;;;;1.20;1.00;;;5.30;93.20;;;;;;5050233;28;20464;-74
2021/04/14 08:08:16;;;;;;;1.97;1.20;;;5.40;92.60;;;;;;5046307;28;20488;-72
2021/04/14 08:10:55;;;;;;;1.20;0.90;;;5.50;93.00;;;;;;5049822;28;20517;-72
2021/04/14 08:13:25;;;;;;;1.57;1.10;;;5.60;92.60;;;;;;5050242;28;20907;-72
2021/04/14 08:15:53;;;;;;;1.20;1.00;;;5.70;92.70;;;;;;5048355;28;20442;-73
2021/04/14 08:18:26;;;;;;;1.20;1.10;;;5.90;91.80;;;;;;5050245;28;20482;-72
2021/04/14 08:21:12;;;;;;;1.20;1.00;;;6.10;93.40;;;;;;5049039;28;20470;-73
2021/04/14 08:23:52;;;;;;;1.20;0.90;;;6.30;92.10;;;;;;5050670;28;20456;-73
2021/04/14 08:26:26;;;;;;;1.50;1.20;;;6.50;91.70;;;;;;5047065;28;20463;-70
2021/04/14 08:28:55;;;;;;;1.20;0.90;;;6.60;89.30;;;;;;5050483;28;20893;-73
2021/04/14 08:31:35;;;;;;;1.50;1.00;;;6.60;88.70;;;;;;5047508;28;20467;-72
2021/04/14 08:34:16;;;;;;;1.70;1.20;;;6.70;89.00;;;;;;5048900;28;20464;-71
2021/04/14 08:36:53;;;;;;;1.20;1.13;;;6.90;89.30;;;;;;5047184;28;20458;-72
2021/04/14 08:39:23;;;;;;;1.20;1.00;;;7.00;88.60;;;;;;5050216;28;20490;-70
2021/04/14 08:41:50;;;;;;;1.20;1.00;;;7.10;88.90;;;;;;5046009;28;20458;-72
2021/04/14 08:44:31;;;;;;;1.40;1.10;;;7.30;88.00;;;;;;5050005;28;21041;-70
2021/04/14 08:47:15;;;;;;;1.20;1.00;;;7.40;86.80;;;;;;5046860;28;20465;-70
2021/04/14 08:49:44;;;;;;;1.20;0.93;;;7.40;87.80;;;;;;5050204;28;20463;-72
2021/04/14 08:52:16;;;;;;;1.20;1.00;;;7.50;86.50;;;;;;5047123;28;20458;-70
2021/04/14 08:54:42;;;;;;;1.50;1.20;;;7.70;86.00;;;;;;5049835;28;20473;-71
2021/04/14 08:57:10;;;;;;;1.40;1.20;;;7.80;87.00;;;;;;5046460;28;20471;-71
2021/04/14 08:59:38;;;;;;;1.20;0.90;;;8.00;85.80;;;;;;5053973;28;21010;-72
2021/04/14 09:02:06;;;;;;;1.20;1.00;;;8.10;83.90;;;;;;5050896;28;20459;-72
2021/04/14 09:04:34;;;;;;;3.00;1.50;;;8.30;83.60;;;;;;5052361;28;20457;-71
2021/04/14 09:07:03;;;;;;;1.20;1.10;;;8.40;84.60;;;;;;5050744;28;20449;-72
2021/04/14 09:09:32;;;;;;;1.33;1.10;;;8.50;83.00;;;;;;5053648;28;20514;-72
2021/04/14 09:12:02;;;;;;;1.30;1.13;;;8.60;83.60;;;;;;5050919;28;20462;-72
2021/04/14 09:14:30;;;;;;;7.83;1.33;;;8.50;82.40;;;;;;5053528;28;20450;-71
2021/04/14 09:17:01;;;;;;;1.40;1.10;;;8.40;82.90;;;;;;5050717;28;21071;-74
2021/04/14 09:19:39;;;;;;;1.47;1.20;;;8.20;82.70;;;;;;5053624;28;20527;-71
2021/04/14 09:22:21;;;;;;;1.20;1.00;;;8.00;83.80;;;;;;5050606;28;20971;-71
2021/04/14 09:24:50;;;;;;;1.20;1.00;;;7.90;83.90;;;;;;5052848;28;20466;-70
2021/04/14 09:27:49;;;;;;;1.63;1.10;;;7.80;84.30;;;;;;5050158;28;20499;-71
2021/04/14 09:30:28;;;;;;;2.03;1.20;;;7.80;85.50;;;;;;5037345;28;20533;-70
2021/04/14 09:32:59;;;;;;;1.20;1.00;;;7.70;85.60;;;;;;5048937;28;20469;-71
2021/04/14 09:35:56;;;;;;;1.20;1.00;;;7.60;85.70;;;;;;5052622;28;20461;-71
2021/04/14 09:38:35;;;;;;;1.93;1.43;;;7.60;85.00;;;;;;5051077;28;21012;-72
2021/04/14 09:41:31;;;;;;;2.30;1.73;;;7.60;85.40;;;;;;5049815;28;20457;-70
2021/04/14 09:44:11;;;;;;;1.30;1.20;;;7.60;84.90;;;;;;5052482;28;20462;-68
2021/04/14 09:46:51;;;;;;;1.20;1.00;;;7.80;82.70;;;;;;5050185;28;20593;-69
2021/04/14 09:49:40;;;;;;;1.20;1.10;;;7.80;82.70;;;;;;5052949;28;20459;-68
2021/04/14 09:52:21;;;;;;;1.90;1.10;;;7.80;82.60;;;;;;5050232;28;20488;-71
2021/04/14 09:54:51;;;;;;;1.20;1.00;;;7.80;82.10;;;;;;5052755;28;20461;-69
2021/04/14 09:57:24;;;;;;;1.20;1.00;;;7.80;82.50;;;;;;5050039;28;20807;-72
2021/04/14 09:59:52;;;;;;;2.97;1.20;;;7.70;82.70;;;;;;5052587;28;20537;-71
2021/04/14 10:02:21;;;;;;;1.30;1.10;;;7.70;83.40;;;;;;5050142;28;20548;-71
2021/04/14 10:04:50;;;;;;;1.20;1.03;;;7.80;83.50;;;;;;5051834;28;20529;-71
2021/04/14 10:07:20;;;;;;;1.97;1.20;;;7.90;82.60;;;;;;5050153;28;20480;-70
2021/04/14 10:09:48;;;;;;;1.20;1.00;;;8.00;81.50;;;;;;5051824;28;20812;-70
2021/04/14 10:12:17;;;;;;;1.30;1.10;;;7.90;81.00;;;;;;5049502;28;20457;-70
2021/04/14 10:14:47;;;;;;;2.57;2.37;;;8.00;82.40;;;;;;5052005;28;20862;-71
2021/04/14 10:17:15;;;;;;;1.67;1.17;;;8.10;81.30;;;;;;5049542;28;20539;-70
2021/04/14 10:19:42;;;;;;;1.20;1.03;;;8.20;80.50;;;;;;5052034;28;20528;-72
2021/04/14 10:22:13;;;;;;;1.20;1.00;;;8.20;80.90;;;;;;5049380;28;20460;-72
2021/04/14 10:24:39;;;;;;;1.20;1.00;;;8.30;81.10;;;;;;5051818;28;20484;-72
2021/04/14 10:27:08;;;;;;;1.20;0.90;;;8.40;82.70;;;;;;5049116;28;21008;-72
2021/04/14 10:29:39;;;;;;;1.20;1.00;;;8.30;85.50;;;;;;5052046;28;20483;-72
2021/04/14 10:32:07;;;;;;;1.20;1.00;;;8.10;87.10;;;;;;5049859;28;20457;-72
2021/04/14 10:34:36;;;;;;;1.20;1.00;;;8.00;87.50;;;;;;5051625;28;20461;-71
2021/04/14 10:37:14;;;;;;;1.20;1.00;;;7.80;88.80;;;;;;5049283;28;20458;-71
2021/04/14 10:39:42;;;;;;;1.20;1.00;;;7.70;88.70;;;;;;5052075;28;20488;-72
2021/04/14 10:42:16;;;;;;;1.20;1.03;;;7.80;90.20;;;;;;5049034;28;21131;-71
2021/04/14 10:44:47;;;;;;;1.97;1.40;;;7.80;88.20;;;;;;5052128;28;20976;-71
2021/04/14 10:47:20;;;;;;;1.20;1.10;;;7.90;87.40;;;;;;5049046;28;20491;-71
2021/04/14 10:49:47;;;;;;;3.00;1.37;;;7.90;86.70;;;;;;5052374;28;20526;-71
2021/04/14 10:52:20;;;;;;;1.40;1.10;;;8.00;85.00;;;;;;5049183;28;20476;-72
2021/04/14 10:54:51;;;;;;;2.53;1.47;;;8.00;83.60;;;;;;5052062;28;20551;-71
2021/04/14 10:57:25;;;;;;;1.20;1.00;;;8.00;83.70;;;;;;5049307;28;20472;-71
2021/04/14 10:59:52;;;;;;;1.30;1.10;;;8.10;84.00;;;;;;5052387;28;20458;-72
2021/04/14 11:02:22;;;;;;;1.20;0.90;;;8.20;83.60;;;;;;5048728;28;20477;-71
2021/04/14 11:04:49;;;;;;;1.20;1.00;;;8.20;81.40;;;;;;5051982;28;20481;-72
2021/04/14 11:07:22;;;;;;;1.20;1.20;;;8.30;82.60;;;;;;5049853;28;20841;-72
2021/04/14 11:09:50;;;;;;;1.20;1.00;;;8.40;81.20;;;;;;5052191;28;20819;-72
2021/04/14 11:12:19;;;;;;;1.40;1.23;;;8.50;82.70;;;;;;5049197;28;20461;-71
2021/04/14 11:14:49;;;;;;;1.20;1.00;;;8.50;81.80;;;;;;5051823;28;20469;-71
2021/04/14 11:17:21;;;;;;;1.53;1.43;;;8.60;81.10;;;;;;5048913;28;20480;-72
2021/04/14 11:19:56;;;;;;;1.20;1.00;;;8.80;88.60;;;;;;5051951;28;20454;-71
2021/04/14 11:22:24;;;;;;;1.80;1.27;;;9.80;88.40;;;;;;5050505;28;20460;-73
2021/04/14 11:24:52;;;;;;;1.20;1.00;;;10.40;81.90;;;;;;5051774;28;20543;-72
2021/04/14 11:27:23;;;;;;;1.20;1.00;;;10.30;77.30;;;;;;5048210;28;20457;-72
2021/04/14 11:29:52;;;;;;;1.43;1.30;;;10.20;76.80;;;;;;5051052;28;20547;-71
2021/04/14 11:32:23;;;;;;;1.40;1.10;;;10.00;74.30;;;;;;5048141;28;20479;-72
2021/04/14 11:35:05;;;;;;;1.20;1.00;;;9.80;74.80;;;;;;5049561;28;20469;-71
2021/04/14 11:37:45;;;;;;;1.20;1.00;;;9.50;76.50;;;;;;5048410;28;20451;-71
2021/04/14 11:40:34;;;;;;;1.30;1.10;;;9.40;76.00;;;;;;5050528;28;20458;-71
2021/04/14 11:43:04;;;;;;;1.20;0.90;;;9.50;76.50;;;;;;5034191;28;20459;-72
2021/04/14 11:45:34;;;;;;;1.20;1.00;;;9.40;74.50;;;;;;5050585;28;20513;-71
2021/04/14 11:48:12;;;;;;;1.23;1.13;;;9.30;73.20;;;;;;5048372;28;20486;-71
2021/04/14 11:50:40;;;;;;;1.20;1.07;;;9.40;76.30;;;;;;5051015;28;20950;-71
2021/04/14 11:53:22;;;;;;;1.40;1.20;;;9.40;74.40;;;;;;5048452;28;20460;-71
2021/04/14 11:55:49;;;;;;;1.20;1.10;;;9.40;73.80;;;;;;5050922;28;20460;-72
2021/04/14 11:58:28;;;;;;;1.20;1.00;;;9.50;74.20;;;;;;5046554;28;20521;-68
2021/04/14 12:00:55;;;;;;;1.20;1.10;;;9.50;74.80;;;;;;5050763;28;20479;-71
2021/04/14 12:03:29;;;;;;;1.20;1.00;;;9.70;75.40;;;;;;5048242;28;20471;-71
2021/04/14 12:05:57;;;;;;;1.43;1.10;;;9.80;76.20;;;;;;5050411;28;20481;-71
2021/04/14 12:08:25;;;;;;;1.93;1.77;;;9.80;77.40;;;;;;5048359;28;20494;-72
2021/04/14 12:10:53;;;;;;;1.20;1.00;;;9.90;75.90;;;;;;5051439;28;20800;-71
2021/04/14 12:13:21;;;;;;;1.20;0.90;;;9.90;75.80;;;;;;5048301;28;20525;-70
2021/04/14 12:15:48;;;;;;;1.50;1.30;;;9.90;75.30;;;;;;5050466;28;20880;-71
2021/04/14 12:18:17;;;;;;;4.50;1.40;;;9.90;74.80;;;;;;5048039;28;20475;-73
2021/04/14 12:20:44;;;;;;;1.20;1.00;;;10.00;75.70;;;;;;5048943;28;20516;-71
2021/04/14 12:23:13;;;;;;;1.20;1.00;;;10.10;75.90;;;;;;5046667;28;20464;-71
2021/04/14 12:25:40;;;;;;;1.30;1.20;;;10.10;75.20;;;;;;5050102;28;20461;-71
2021/04/14 12:28:09;;;;;;;1.20;1.10;;;10.20;76.10;;;;;;5047814;28;20551;-71
2021/04/14 12:30:36;;;;;;;1.20;1.00;;;10.30;76.10;;;;;;5050167;28;20458;-72
2021/04/14 12:33:04;;;;;;;2.37;1.33;;;10.30;75.30;;;;;;5050192;28;20816;-73
2021/04/14 12:35:31;;;;;;;1.30;1.30;;;10.30;74.40;;;;;;5053640;28;20464;-74
2021/04/14 12:37:58;;;;;;;1.20;0.90;;;10.20;73.80;;;;;;5051443;28;20465;-72
2021/04/14 12:40:25;;;;;;;1.20;1.00;;;10.30;73.90;;;;;;5054238;28;20947;-71
2021/04/14 12:42:52;;;;;;;1.70;1.13;;;10.30;73.60;;;;;;5051577;28;20459;-71
2021/04/14 12:45:29;;;;;;;1.20;1.20;;;10.40;73.80;;;;;;5054318;28;20463;-72
2021/04/14 12:47:56;;;;;;;1.20;1.10;;;10.40;73.70;;;;;;5050610;28;20488;-72
2021/04/14 12:50:23;;;;;;;1.20;1.00;;;10.40;72.70;;;;;;5052357;28;20483;-72
2021/04/14 12:52:53;;;;;;;1.20;1.00;;;10.40;73.80;;;;;;5051865;28;20587;-71
2021/04/14 12:55:24;;;;;;;1.20;0.97;;;10.60;73.40;;;;;;5054357;28;20468;-71
2021/04/14 12:57:51;;;;;;;1.20;1.00;;;10.60;71.50;;;;;;5051765;28;20467;-72
2021/04/14 13:00:20;;;;;;;1.20;0.97;;;10.70;72.60;;;;;;5054572;28;20797;-72
2021/04/14 13:02:51;;;;;;;1.20;0.90;;;10.60;72.00;;;;;;5051469;28;20900;-73
2021/04/14 13:05:23;;;;;;;1.20;1.00;;;10.40;73.00;;;;;;5054005;28;20457;-71
2021/04/14 13:07:57;;;;;;;1.20;0.90;;;10.60;71.70;;;;;;5051558;28;20489;-71
2021/04/14 13:10:26;;;;;;;1.63;1.10;;;10.50;71.90;;;;;;5054125;28;20807;-71